Time,TemperatureF,DewpointF,PressureIn,WindDirection,WindDirectionDegrees,WindSpeedMPH,WindSpeedGustMPH,Humidity,HourlyPrecipIn,Conditions,Clouds,dailyrainin,SoftwareType,DateUTC
2013-03-18 00:02:00,21.0,6.0,29.82,North,-999,-999.0,-999.0,51,-99.99,,,-99.99,,2013-03-18 06:02:00,
2013-03-18 00:12:00,21.0,6.0,29.82,North,-999,-999.0,-999.0,51,-99.99,,,-99.99,,2013-03-18 06:12:00,
2013-03-18 00:22:00,21.0,7.0,29.82,North,-999,-999.0,-999.0,53,-99.99,,,-99.99,,2013-03-18 06:22:00,
2013-03-18 00:32:00,21.0,8.0,29.83,North,-999,-999.0,-999.0,57,-99.99,,,-99.99,,2013-03-18 06:32:00,
2013-03-18 00:42:00,21.0,8.0,29.83,North,-999,-999.0,-999.0,57,-99.99,,,-99.99,,2013-03-18 06:42:00,
2013-03-18 00:52:00,20.0,11.0,29.83,North,-999,-999.0,-999.0,66,-99.99,,,-99.99,,2013-03-18 06:52:00,
2013-03-18 01:02:00,20.0,11.0,29.83,North,-999,-999.0,-999.0,68,-99.99,,,-99.99,,2013-03-18 07:02:00,
2013-03-18 01:12:00,20.0,11.0,29.83,North,-999,-999.0,-999.0,68,-99.99,,,-99.99,,2013-03-18 07:12:00,
2013-03-18 01:22:00,20.0,10.0,29.82,North,-999,-999.0,-999.0,64,-99.99,,,-99.99,,2013-03-18 07:22:00,
2013-03-18 01:32:00,20.0,8.0,29.82,North,-999,-999.0,-999.0,60,-99.99,,,-99.99,,2013-03-18 07:32:00,
2013-03-18 01:42:00,20.0,8.0,29.82,North,-999,-999.0,-999.0,60,-99.99,,,-99.99,,2013-03-18 07:42:00,
2013-03-18 01:52:00,19.0,7.0,29.82,North,-999,-999.0,-999.0,59,-99.99,,,-99.99,,2013-03-18 07:52:00,
2013-03-18 02:02:00,19.0,6.0,29.82,North,-999,-999.0,-999.0,57,-99.99,,,-99.99,,2013-03-18 08:02:00,
2013-03-18 02:12:00,19.0,6.0,29.82,North,-999,-999.0,-999.0,57,-99.99,,,-99.99,,2013-03-18 08:12:00,
2013-03-18 02:22:00,20.0,6.0,29.82,North,-999,-999.0,-999.0,55,-99.99,,,-99.99,,2013-03-18 08:22:00,
2013-03-18 02:32:00,19.0,6.0,29.83,North,-999,-999.0,-999.0,56,-99.99,,,-99.99,,2013-03-18 08:32:00,
2013-03-18 02:43:00,19.0,6.0,29.83,North,-999,-999.0,-999.0,56,-99.99,,,-99.99,,2013-03-18 08:43:00,
2013-03-18 02:52:00,18.0,7.0,29.83,North,-999,-999.0,-999.0,61,-99.99,,,-99.99,,2013-03-18 08:52:00,
2013-03-18 03:02:00,17.0,6.0,29.83,North,-999,-999.0,-999.0,60,-99.99,,,-99.99,,2013-03-18 09:02:00,
2013-03-18 03:12:00,17.0,6.0,29.83,North,-999,-999.0,-999.0,60,-99.99,,,-99.99,,2013-03-18 09:12:00,
2013-03-18 03:22:00,17.0,4.0,29.83,North,-999,-999.0,-999.0,56,-99.99,,,-99.99,,2013-03-18 09:22:00,
2013-03-18 03:33:00,17.0,5.0,29.83,North,-999,-999.0,-999.0,59,-99.99,,,-99.99,,2013-03-18 09:33:00,
2013-03-18 03:42:00,17.0,5.0,29.83,North,-999,-999.0,-999.0,59,-99.99,,,-99.99,,2013-03-18 09:42:00,
2013-03-18 03:53:00,17.0,6.0,29.83,North,-999,-999.0,-999.0,61,-99.99,,,-99.99,,2013-03-18 09:53:00,
2013-03-18 04:03:00,17.0,5.0,29.83,North,-999,-999.0,-999.0,58,-99.99,,,-99.99,,2013-03-18 10:03:00,
2013-03-18 04:12:00,17.0,5.0,29.83,North,-999,-999.0,-999.0,58,-99.99,,,-99.99,,2013-03-18 10:12:00,
2013-03-18 04:23:00,17.0,4.0,29.83,North,-999,-999.0,-999.0,57,-99.99,,,-99.99,,2013-03-18 10:23:00,
2013-03-18 04:33:00,17.0,6.0,29.83,North,-999,-999.0,-999.0,62,-99.99,,,-99.99,,2013-03-18 10:33:00,
2013-03-18 04:42:00,17.0,6.0,29.83,North,-999,-999.0,-999.0,62,-99.99,,,-99.99,,2013-03-18 10:42:00,
2013-03-18 04:53:00,17.0,6.0,29.83,North,-999,-999.0,-999.0,60,-99.99,,,-99.99,,2013-03-18 10:53:00,
2013-03-18 05:03:00,17.0,6.0,29.83,North,-999,-999.0,-999.0,61,-99.99,,,-99.99,,2013-03-18 11:03:00,
2013-03-18 05:12:00,17.0,6.0,29.83,North,-999,-999.0,-999.0,61,-99.99,,,-99.99,,2013-03-18 11:12:00,
2013-03-18 05:22:00,17.0,6.0,29.83,North,-999,-999.0,-999.0,62,-99.99,,,-99.99,,2013-03-18 11:22:00,
2013-03-18 05:32:00,16.0,5.0,29.83,North,-999,-999.0,-999.0,61,-99.99,,,-99.99,,2013-03-18 11:32:00,
2013-03-18 05:42:00,16.0,5.0,29.83,North,-999,-999.0,-999.0,61,-99.99,,,-99.99,,2013-03-18 11:42:00,
2013-03-18 05:52:00,16.0,5.0,29.83,North,-999,-999.0,-999.0,62,-99.99,,,-99.99,,2013-03-18 11:52:00,
2013-03-18 06:02:00,16.0,6.0,29.82,North,-999,-999.0,-999.0,64,-99.99,,,-99.99,,2013-03-18 12:02:00,
2013-03-18 06:12:00,16.0,6.0,29.82,North,-999,-999.0,-999.0,64,-99.99,,,-99.99,,2013-03-18 12:12:00,
2013-03-18 06:22:00,16.0,6.0,29.82,North,-999,-999.0,-999.0,64,-99.99,,,-99.99,,2013-03-18 12:22:00,
2013-03-18 06:32:00,16.0,5.0,29.82,North,-999,-999.0,-999.0,62,-99.99,,,-99.99,,2013-03-18 12:32:00,
2013-03-18 06:43:00,16.0,5.0,29.82,North,-999,-999.0,-999.0,62,-99.99,,,-99.99,,2013-03-18 12:43:00,
2013-03-18 06:52:00,15.0,6.0,29.83,North,-999,-999.0,-999.0,67,-99.99,,,-99.99,,2013-03-18 12:52:00,
2013-03-18 07:02:00,15.0,6.0,29.83,North,-999,-999.0,-999.0,67,-99.99,,,-99.99,,2013-03-18 13:02:00,
2013-03-18 07:12:00,15.0,6.0,29.83,North,-999,-999.0,-999.0,67,-99.99,,,-99.99,,2013-03-18 13:12:00,
2013-03-18 07:22:00,15.0,5.0,29.83,North,-999,-999.0,-999.0,65,-99.99,,,-99.99,,2013-03-18 13:22:00,
2013-03-18 07:32:00,15.0,5.0,29.83,North,-999,-999.0,-999.0,64,-99.99,,,-99.99,,2013-03-18 13:32:00,
2013-03-18 07:42:00,15.0,5.0,29.83,North,-999,-999.0,-999.0,64,-99.99,,,-99.99,,2013-03-18 13:42:00,
2013-03-18 07:52:00,15.0,5.0,29.83,North,-999,-999.0,-999.0,64,-99.99,,,-99.99,,2013-03-18 13:52:00,
2013-03-18 08:02:00,15.0,5.0,29.83,North,-999,-999.0,-999.0,64,-99.99,,,-99.99,,2013-03-18 14:02:00,
2013-03-18 08:12:00,15.0,5.0,29.83,North,-999,-999.0,-999.0,64,-99.99,,,-99.99,,2013-03-18 14:12:00,
2013-03-18 08:22:00,15.0,5.0,29.84,North,-999,-999.0,-999.0,65,-99.99,,,-99.99,,2013-03-18 14:22:00,
2013-03-18 08:32:00,15.0,5.0,29.84,North,-999,-999.0,-999.0,65,-99.99,,,-99.99,,2013-03-18 14:32:00,
2013-03-18 08:42:00,15.0,5.0,29.84,North,-999,-999.0,-999.0,65,-99.99,,,-99.99,,2013-03-18 14:42:00,
2013-03-18 08:52:00,15.0,5.0,29.84,North,-999,-999.0,-999.0,65,-99.99,,,-99.99,,2013-03-18 14:52:00,
2013-03-18 09:00:00,18.0,5.0,29.85,North,-999,-999.0,-999.0,57,-99.99,,,-99.99,,2013-03-18 15:00:00,
2013-03-18 09:02:00,16.0,6.0,29.85,North,-999,-999.0,-999.0,63,-99.99,,,-99.99,,2013-03-18 15:02:00,
2013-03-18 09:12:00,16.0,6.0,29.85,North,-999,-999.0,-999.0,63,-99.99,,,-99.99,,2013-03-18 15:12:00,
2013-03-18 09:22:00,17.0,6.0,29.85,North,-999,-999.0,-999.0,61,-99.99,,,-99.99,,2013-03-18 15:22:00,
2013-03-18 09:33:00,18.0,5.0,29.85,North,-999,-999.0,-999.0,57,-99.99,,,-99.99,,2013-03-18 15:33:00,
2013-03-18 09:42:00,18.0,5.0,29.85,North,-999,-999.0,-999.0,57,-99.99,,,-99.99,,2013-03-18 15:42:00,
2013-03-18 09:52:00,18.0,5.0,29.85,North,-999,-999.0,-999.0,57,-99.99,,,-99.99,,2013-03-18 15:52:00,
2013-03-18 11:00:00,24.0,5.0,29.86,North,-999,-999.0,-999.0,44,-99.99,,,-99.99,,2013-03-18 17:00:00,
2013-03-18 11:32:00,24.0,5.0,29.86,North,-999,-999.0,-999.0,44,-99.99,,,-99.99,,2013-03-18 17:32:00,
2013-03-18 11:42:00,24.0,5.0,29.86,North,-999,-999.0,-999.0,44,-99.99,,,-99.99,,2013-03-18 17:42:00,
2013-03-18 11:52:00,24.0,5.0,29.86,North,-999,-999.0,-999.0,44,-99.99,,,-99.99,,2013-03-18 17:52:00,
2013-03-18 12:22:00,24.0,9.0,29.86,North,-999,-999.0,-999.0,51,-99.99,,,-99.99,,2013-03-18 18:22:00,
2013-03-18 12:32:00,24.0,9.0,29.86,North,-999,-999.0,-999.0,51,-99.99,,,-99.99,,2013-03-18 18:32:00,
2013-03-18 12:42:00,24.0,9.0,29.86,North,-999,-999.0,-999.0,51,-99.99,,,-99.99,,2013-03-18 18:42:00,
2013-03-18 12:52:00,24.0,8.0,29.85,North,-999,-999.0,-999.0,50,-99.99,,,-99.99,,2013-03-18 18:52:00,
2013-03-18 13:02:00,25.0,7.0,29.85,North,-999,-999.0,-999.0,46,-99.99,,,-99.99,,2013-03-18 19:02:00,
2013-03-18 13:12:00,25.0,7.0,29.85,North,-999,-999.0,-999.0,46,-99.99,,,-99.99,,2013-03-18 19:12:00,
2013-03-18 13:22:00,25.0,8.0,29.85,North,-999,-999.0,-999.0,47,-99.99,,,-99.99,,2013-03-18 19:22:00,
2013-03-18 13:32:00,25.0,8.0,29.85,North,-999,-999.0,-999.0,47,-99.99,,,-99.99,,2013-03-18 19:32:00,
2013-03-18 13:42:00,25.0,8.0,29.85,North,-999,-999.0,-999.0,47,-99.99,,,-99.99,,2013-03-18 19:42:00,
2013-03-18 14:02:00,26.0,11.0,29.84,North,-999,-999.0,-999.0,52,-99.99,,,-99.99,,2013-03-18 20:02:00,
2013-03-18 14:12:00,26.0,11.0,29.84,North,-999,-999.0,-999.0,52,-99.99,,,-99.99,,2013-03-18 20:12:00,
2013-03-18 14:22:00,26.0,11.0,29.84,North,-999,-999.0,-999.0,52,-99.99,,,-99.99,,2013-03-18 20:22:00,
2013-03-18 14:32:00,26.0,11.0,29.84,North,-999,-999.0,-999.0,52,-99.99,,,-99.99,,2013-03-18 20:32:00,
2013-03-18 14:42:00,26.0,11.0,29.84,North,-999,-999.0,-999.0,52,-99.99,,,-99.99,,2013-03-18 20:42:00,
2013-03-18 15:02:00,23.0,18.0,29.84,North,-999,-999.0,-999.0,80,-99.99,,,-99.99,,2013-03-18 21:02:00,
2013-03-18 15:11:00,23.0,18.0,29.84,North,-999,-999.0,-999.0,80,-99.99,,,-99.99,,2013-03-18 21:11:00,
2013-03-18 15:22:00,22.0,17.0,29.83,North,-999,-999.0,-999.0,82,-99.99,,,-99.99,,2013-03-18 21:22:00,
2013-03-18 15:32:00,23.0,19.0,29.83,North,-999,-999.0,-999.0,85,-99.99,,,-99.99,,2013-03-18 21:32:00,
2013-03-18 15:42:00,23.0,19.0,29.83,North,-999,-999.0,-999.0,85,-99.99,,,-99.99,,2013-03-18 21:42:00,
2013-03-18 15:53:00,24.0,18.0,29.83,North,-999,-999.0,-999.0,77,-99.99,,,-99.99,,2013-03-18 21:53:00,
2013-03-18 16:03:00,24.0,18.0,29.82,North,-999,-999.0,-999.0,79,-99.99,,,-99.99,,2013-03-18 22:03:00,
2013-03-18 16:12:00,24.0,18.0,29.82,North,-999,-999.0,-999.0,79,-99.99,,,-99.99,,2013-03-18 22:12:00,
2013-03-18 16:22:00,24.0,20.0,29.82,North,-999,-999.0,-999.0,84,-99.99,,,-99.99,,2013-03-18 22:22:00,
2013-03-18 16:32:00,24.0,20.0,29.82,North,-999,-999.0,-999.0,86,-99.99,,,-99.99,,2013-03-18 22:32:00,
2013-03-18 16:42:00,24.0,20.0,29.82,North,-999,-999.0,-999.0,86,-99.99,,,-99.99,,2013-03-18 22:42:00,
2013-03-18 16:52:00,23.0,20.0,29.82,North,-999,-999.0,-999.0,89,-99.99,,,-99.99,,2013-03-18 22:52:00,
2013-03-18 17:02:00,23.0,21.0,29.82,North,-999,-999.0,-999.0,90,-99.99,,,-99.99,,2013-03-18 23:02:00,
2013-03-18 17:12:00,23.0,21.0,29.82,North,-999,-999.0,-999.0,90,-99.99,,,-99.99,,2013-03-18 23:12:00,
2013-03-18 17:22:00,23.0,21.0,29.82,North,-999,-999.0,-999.0,91,-99.99,,,-99.99,,2013-03-18 23:22:00,
2013-03-18 17:32:00,23.0,21.0,29.82,North,-999,-999.0,-999.0,90,-99.99,,,-99.99,,2013-03-18 23:32:00,
2013-03-18 17:42:00,23.0,21.0,29.82,North,-999,-999.0,-999.0,90,-99.99,,,-99.99,,2013-03-18 23:42:00,
2013-03-18 17:53:00,23.0,20.0,29.82,North,-999,-999.0,-999.0,89,-99.99,,,-99.99,,2013-03-18 23:53:00,
2013-03-18 18:02:00,24.0,21.0,29.82,North,-999,-999.0,-999.0,87,-99.99,,,-99.99,,2013-03-19 00:02:00,
2013-03-18 18:12:00,24.0,21.0,29.82,North,-999,-999.0,-999.0,87,-99.99,,,-99.99,,2013-03-19 00:12:00,
2013-03-18 18:22:00,23.0,20.0,29.82,North,-999,-999.0,-999.0,88,-99.99,,,-99.99,,2013-03-19 00:22:00,
2013-03-18 18:32:00,23.0,20.0,29.82,North,-999,-999.0,-999.0,88,-99.99,,,-99.99,,2013-03-19 00:32:00,
2013-03-18 18:42:00,23.0,20.0,29.82,North,-999,-999.0,-999.0,88,-99.99,,,-99.99,,2013-03-19 00:42:00,
2013-03-18 18:52:00,24.0,19.0,29.80,North,-999,-999.0,-999.0,80,-99.99,,,-99.99,,2013-03-19 00:52:00,
2013-03-18 19:02:00,25.0,19.0,29.80,North,-999,-999.0,-999.0,77,-99.99,,,-99.99,,2013-03-19 01:02:00,
2013-03-18 19:12:00,25.0,19.0,29.80,North,-999,-999.0,-999.0,77,-99.99,,,-99.99,,2013-03-19 01:12:00,
2013-03-18 19:22:00,25.0,19.0,29.80,North,-999,-999.0,-999.0,76,-99.99,,,-99.99,,2013-03-19 01:22:00,
2013-03-18 19:32:00,25.0,17.0,29.80,North,-999,-999.0,-999.0,72,-99.99,,,-99.99,,2013-03-19 01:32:00,
2013-03-18 19:42:00,25.0,17.0,29.80,North,-999,-999.0,-999.0,72,-99.99,,,-99.99,,2013-03-19 01:42:00,
2013-03-18 19:52:00,25.0,16.0,29.80,North,-999,-999.0,-999.0,67,-99.99,,,-99.99,,2013-03-19 01:52:00,
2013-03-18 20:02:00,26.0,15.0,29.80,North,-999,-999.0,-999.0,63,-99.99,,,-99.99,,2013-03-19 02:02:00,
2013-03-18 20:12:00,26.0,15.0,29.80,North,-999,-999.0,-999.0,63,-99.99,,,-99.99,,2013-03-19 02:12:00,
2013-03-18 20:22:00,26.0,13.0,29.80,North,-999,-999.0,-999.0,57,-99.99,,,-99.99,,2013-03-19 02:22:00,
2013-03-18 20:32:00,27.0,13.0,29.80,North,-999,-999.0,-999.0,55,-99.99,,,-99.99,,2013-03-19 02:32:00,
2013-03-18 20:42:00,27.0,13.0,29.80,North,-999,-999.0,-999.0,55,-99.99,,,-99.99,,2013-03-19 02:42:00,
2013-03-18 20:52:00,27.0,12.0,29.80,North,-999,-999.0,-999.0,53,-99.99,,,-99.99,,2013-03-19 02:52:00,
2013-03-18 21:02:00,27.0,13.0,29.81,North,-999,-999.0,-999.0,54,-99.99,,,-99.99,,2013-03-19 03:02:00,
2013-03-18 21:12:00,27.0,13.0,29.81,North,-999,-999.0,-999.0,54,-99.99,,,-99.99,,2013-03-19 03:12:00,
2013-03-18 21:22:00,27.0,12.0,29.81,North,-999,-999.0,-999.0,53,-99.99,,,-99.99,,2013-03-19 03:22:00,
2013-03-18 21:32:00,27.0,11.0,29.81,North,-999,-999.0,-999.0,51,-99.99,,,-99.99,,2013-03-19 03:32:00,
2013-03-18 21:43:00,27.0,11.0,29.81,North,-999,-999.0,-999.0,51,-99.99,,,-99.99,,2013-03-19 03:43:00,
2013-03-18 21:53:00,27.0,11.0,29.82,North,-999,-999.0,-999.0,50,-99.99,,,-99.99,,2013-03-19 03:53:00,
2013-03-18 22:03:00,27.0,10.0,29.82,North,-999,-999.0,-999.0,49,-99.99,,,-99.99,,2013-03-19 04:03:00,
2013-03-18 22:13:00,27.0,10.0,29.82,North,-999,-999.0,-999.0,49,-99.99,,,-99.99,,2013-03-19 04:13:00,
2013-03-18 22:22:00,27.0,10.0,29.82,North,-999,-999.0,-999.0,49,-99.99,,,-99.99,,2013-03-19 04:22:00,
2013-03-18 22:33:00,27.0,10.0,29.83,North,-999,-999.0,-999.0,49,-99.99,,,-99.99,,2013-03-19 04:33:00,
2013-03-18 22:42:00,27.0,10.0,29.83,North,-999,-999.0,-999.0,49,-99.99,,,-99.99,,2013-03-19 04:42:00,
2013-03-18 22:52:00,26.0,9.0,29.83,North,-999,-999.0,-999.0,48,-99.99,,,-99.99,,2013-03-19 04:52:00,
2013-03-18 23:02:00,26.0,9.0,29.84,North,-999,-999.0,-999.0,48,-99.99,,,-99.99,,2013-03-19 05:02:00,
2013-03-18 23:11:00,26.0,9.0,29.84,North,-999,-999.0,-999.0,48,-99.99,,,-99.99,,2013-03-19 05:11:00,
2013-03-18 23:22:00,26.0,9.0,29.85,North,-999,-999.0,-999.0,48,-99.99,,,-99.99,,2013-03-19 05:22:00,
2013-03-18 23:32:00,25.0,8.0,29.85,North,-999,-999.0,-999.0,48,-99.99,,,-99.99,,2013-03-19 05:32:00,
2013-03-18 23:42:00,25.0,8.0,29.85,North,-999,-999.0,-999.0,48,-99.99,,,-99.99,,2013-03-19 05:42:00,
2013-03-18 23:52:00,25.0,8.0,29.86,North,-999,-999.0,-999.0,47,-99.99,,,-99.99,,2013-03-19 05:52:00,